首页
METAR-TAF:

METAR-TAF

机场 :

里尔, 法国

纬度: 50-34N, 经度: 003-06E, 海拔: 48米

当前天气观测

该预报发布于30分钟前的21:00 UTC
风速2节,风向
温度 21°C
湿度 69%
气压 1010 hPa
能见度10公里或以上
1500米以下无云,无积雨云

METAR: LFQQ 182100Z AUTO 10002KT CAVOK 21/15 Q1010 NOSIG

时间: 23:30 (21:30 UTC)

预报

该预报发布于4小时和30分钟前的17:00 UTC
预报有效从18日的 18点(UTC)到 19日的 24点(UTC)
风速5节,风向东转东南
能见度10公里或以上
1500米以下无云,无积雨云
几率 30% :
短暂存在
从 18日的 23点(UTC)到 19日的 01点(UTC)
风速15节,风向多变,有时为35节阵风
能見度: 2000
多云层高于8000英尺, 积雨云.
雷暴, 雨
几率 30% :
短暂存在
从 19日的 14点(UTC)到 19日的 17点(UTC)
风速15节,风向多变,有时为35节阵风
能見度: 2000
多云层高于8000英尺, 积雨云.
雷暴, 雨, 冰雹

TAF: LFQQ 181700Z 1818/1924 12005KT CAVOK PROB30 TEMPO 1823/1901 VRB15G35KT 2000 TSRA BKN080CB PROB30 TEMPO 1914/1917 VRB15G35KT 2000 TSRAGR BKN080CB

超过4000个机场的气象观测和天气预报(METAR&TAF报告)。

可查询的气象台以黄色和红色小点在地图上表示。

将鼠标移到小点上方,可查看气象台名称。

然后点击查看天气观测和预报。

如需切换地图:点击带黑十字的绿色按钮放大地图;点击带横线的绿色按钮缩小地图;或者点击绿色箭头查看邻近地区的地图。


METAR-TAF: